Central Nebraska Regional Airport
KGRI : now visible

Airfield :











YOU CAN JOIN US ON...

 
LOGIN :

Register | Disclaimer

   EN    FR    IT 

 









Legend :    VFR   Marginal VFR   IFR   Intensive IFR   Very Intensive IFR
Visi :
Ceiling :
>= 8 km
>= 3000ft
5 to 8 km
1000 to 3000 ft
1500m to 5 km
500 to 1000 ft
800 to 1500m
200 to 500 ft
< 800m
< 200 ft
Symbols :   Thunderstorms  Fog  Heavy snow  Heavy precipitations  Wind > 20 kt







- Airport Elevation : 1847 ft
- IATA code : GRI


KGRI - Central Nebraska Regional

CURRENT METAR :
  • 210909Z AUTO 36011KT 6SM -TSRA BR SCT008 OVC016 19/18 A2994 RMK AO2 LTG DSNT ALQDS TSE02B03 P0001 T01940178 $

EXPIRED METARs :
  • 210853Z AUTO 01009KT 8SM -TSRA OVC017 21/18 A2993 RMK AO2 LTG DSNT ALQDS RAB01 TSE45B47 SLP122 P0009 60009 T02060183 58008 $
  • 210839Z AUTO 05007KT 10SM -TSRA OVC015 21/18 A2994 RMK AO2 LTG DSNT E AND W AND NW RAB01 P0008 T02060183 $
  • 210829Z AUTO 04011KT 10SM -TSRA OVC014 21/18 A2994 RMK AO2 LTG DSNT E AND W AND NW RAB01 P0006 T02060183 $
  • 210753Z AUTO 05009KT 10SM TS FEW017 OVC024 22/18 A2995 RMK AO2 LTG DSNT E AND NW TSB38 SLP127 T02170178 $
  • 210744Z AUTO 05010KT 10SM TS BKN020 OVC026 22/18 A2995 RMK AO2 LTG DSNT NW TSB38 T02170178 $
  • 210653Z AUTO 04011G19KT 10SM OVC019 22/18 A2996 RMK AO2 LTG DSNT W SLP131 T02170178 $

TAF KGRI
Valid from the 21 at 08:00 until the 22 at 06:00 UTC


210740Z 2108/2206 03010KT P6SM BKN015
TEMPO 2108/2110 5SM -TSRA OVC015CB
FM211100 02013KT 5SM -SHRA VCTS OVC008CB
FM212000 02015KT P6SM OVC015
FM220200 03006KT P6SM BKN050
KZMP FIR / North America



MET'MAP, your aeronautical weather chart ! - Copyright ORBIFLY December 2007 - Disclaimer

ORBIFLY MET'MAP TEAM :

Programming & Development : Alexandra Zaïnal
Concept & Development : Baudouin d'Aumeries
Co-Development & Prog : Marc-Olivier Méhu
Technical & hardware support : Manuel Goepfert

Contact : metmap@orbifly.com




SOURCES & CREDITS :

   NOAA       Earth
Advisory